Aurora, New York
Current Conditions -  °F | °C
As of 5:53 AM on Sunday 23 Nov 2014 (Local Time) from KPEO Reporting Station
Overcast Overcast  
Wind Chill: 45°   Ceiling: 4200
Heat Index: 49°   Visibility: 10mi
Dew Point: 37°   Wind: 9mph
Humidity: 64%   Direction: 220°SW
Pressure: 30.04"   Gusts: NA
Location:  42.75°N, 76.7°W
Report Text: KPEO 231053Z AUTO 22008KT 10SM OVC042 09/03 A3004 RMK AO2 SLP176 T00940028
Loading
Personal Weather Stations






























Interactive Weather Map New forecast layout! Learn more

10-Day Weather Forecast

Advertisements
Track Severe Weather on mobile